sensor_id;sensor_type;location;lat;lon;timestamp;P1;durP1;ratioP1;P2;durP2;ratioP2
69485;SDS011;56677;51.710;5.366;2022-08-19T00:00:20;5.03;;;3.25;;
69485;SDS011;56677;51.710;5.366;2022-08-19T00:02:46;4.97;;;3.20;;
69485;SDS011;56677;51.710;5.366;2022-08-19T00:05:12;4.97;;;3.27;;
69485;SDS011;56677;51.710;5.366;2022-08-19T00:07:37;4.70;;;3.20;;
69485;SDS011;56677;51.710;5.366;2022-08-19T00:10:04;4.95;;;2.92;;
69485;SDS011;56677;51.710;5.366;2022-08-19T00:12:30;4.95;;;2.80;;
69485;SDS011;56677;51.710;5.366;2022-08-19T00:14:55;5.78;;;3.05;;
69485;SDS011;56677;51.710;5.366;2022-08-19T00:17:20;5.50;;;3.33;;
69485;SDS011;56677;51.710;5.366;2022-08-19T00:19:45;5.47;;;2.97;;
69485;SDS011;56677;51.710;5.366;2022-08-19T00:22:10;5.13;;;3.00;;
69485;SDS011;56677;51.710;5.366;2022-08-19T00:24:36;6.85;;;2.90;;
69485;SDS011;56677;51.710;5.366;2022-08-19T00:27:01;5.70;;;3.97;;
69485;SDS011;56677;51.710;5.366;2022-08-19T00:29:26;6.15;;;3.70;;
69485;SDS011;56677;51.710;5.366;2022-08-19T00:31:51;4.87;;;3.13;;
69485;SDS011;56677;51.710;5.366;2022-08-19T00:34:17;4.73;;;3.27;;
69485;SDS011;56677;51.710;5.366;2022-08-19T00:36:42;5.13;;;3.40;;
69485;SDS011;56677;51.710;5.366;2022-08-19T00:39:08;5.20;;;3.20;;
69485;SDS011;56677;51.710;5.366;2022-08-19T00:41:33;4.85;;;3.20;;
69485;SDS011;56677;51.710;5.366;2022-08-19T00:44:03;6.10;;;3.17;;
69485;SDS011;56677;51.710;5.366;2022-08-19T00:46:28;4.70;;;2.92;;
69485;SDS011;56677;51.710;5.366;2022-08-19T00:48:54;5.27;;;3.17;;
69485;SDS011;56677;51.710;5.366;2022-08-19T00:51:19;5.13;;;2.90;;
69485;SDS011;56677;51.710;5.366;2022-08-19T00:53:44;4.77;;;2.70;;
69485;SDS011;56677;51.710;5.366;2022-08-19T00:56:10;4.77;;;3.20;;
69485;SDS011;56677;51.710;5.366;2022-08-19T00:58:35;4.77;;;3.30;;
69485;SDS011;56677;51.710;5.366;2022-08-19T01:01:01;5.17;;;3.40;;
69485;SDS011;56677;51.710;5.366;2022-08-19T01:03:26;4.50;;;2.90;;
69485;SDS011;56677;51.710;5.366;2022-08-19T01:05:51;5.82;;;3.70;;
69485;SDS011;56677;51.710;5.366;2022-08-19T01:08:18;5.63;;;3.38;;
69485;SDS011;56677;51.710;5.366;2022-08-19T01:10:45;4.78;;;3.20;;
69485;SDS011;56677;51.710;5.366;2022-08-19T01:13:13;4.70;;;3.35;;
69485;SDS011;56677;51.710;5.366;2022-08-19T01:15:40;5.30;;;3.17;;
69485;SDS011;56677;51.710;5.366;2022-08-19T01:18:08;4.95;;;3.10;;
69485;SDS011;56677;51.710;5.366;2022-08-19T01:20:34;5.10;;;2.92;;
69485;SDS011;56677;51.710;5.366;2022-08-19T01:23:00;5.57;;;3.20;;
69485;SDS011;56677;51.710;5.366;2022-08-19T01:25:30;5.53;;;3.22;;
69485;SDS011;56677;51.710;5.366;2022-08-19T01:27:55;5.55;;;3.47;;
69485;SDS011;56677;51.710;5.366;2022-08-19T01:30:22;4.87;;;3.07;;
69485;SDS011;56677;51.710;5.366;2022-08-19T01:32:49;4.67;;;3.10;;
69485;SDS011;56677;51.710;5.366;2022-08-19T01:35:14;5.40;;;2.95;;
69485;SDS011;56677;51.710;5.366;2022-08-19T01:37:47;4.77;;;3.00;;
69485;SDS011;56677;51.710;5.366;2022-08-19T01:40:12;4.78;;;3.42;;
69485;SDS011;56677;51.710;5.366;2022-08-19T01:42:37;5.22;;;2.85;;
69485;SDS011;56677;51.710;5.366;2022-08-19T01:45:03;5.20;;;3.20;;
69485;SDS011;56677;51.710;5.366;2022-08-19T01:47:29;5.70;;;3.00;;
69485;SDS011;56677;51.710;5.366;2022-08-19T01:49:54;4.25;;;2.97;;
69485;SDS011;56677;51.710;5.366;2022-08-19T01:52:19;4.80;;;3.17;;
69485;SDS011;56677;51.710;5.366;2022-08-19T01:54:44;5.47;;;3.45;;
69485;SDS011;56677;51.710;5.366;2022-08-19T01:57:11;5.63;;;3.13;;
69485;SDS011;56677;51.710;5.366;2022-08-19T01:59:37;5.68;;;3.38;;
69485;SDS011;56677;51.710;5.366;2022-08-19T02:02:04;5.27;;;2.93;;
69485;SDS011;56677;51.710;5.366;2022-08-19T02:04:29;5.55;;;2.90;;
69485;SDS011;56677;51.710;5.366;2022-08-19T02:06:54;5.95;;;3.13;;
69485;SDS011;56677;51.710;5.366;2022-08-19T02:09:19;5.63;;;2.90;;
69485;SDS011;56677;51.710;5.366;2022-08-19T02:11:45;5.25;;;2.97;;
69485;SDS011;56677;51.710;5.366;2022-08-19T02:14:10;5.68;;;3.20;;
69485;SDS011;56677;51.710;5.366;2022-08-19T02:16:35;5.20;;;3.00;;
69485;SDS011;56677;51.710;5.366;2022-08-19T02:19:00;5.60;;;3.30;;
69485;SDS011;56677;51.710;5.366;2022-08-19T02:21:26;7.05;;;3.40;;
69485;SDS011;56677;51.710;5.366;2022-08-19T02:23:51;5.07;;;3.20;;
69485;SDS011;56677;51.710;5.366;2022-08-19T02:26:16;4.63;;;2.83;;
69485;SDS011;56677;51.710;5.366;2022-08-19T02:28:42;4.90;;;2.83;;
69485;SDS011;56677;51.710;5.366;2022-08-19T02:31:10;5.70;;;3.37;;
69485;SDS011;56677;51.710;5.366;2022-08-19T02:33:36;5.22;;;3.17;;
69485;SDS011;56677;51.710;5.366;2022-08-19T02:36:03;4.93;;;3.42;;
69485;SDS011;56677;51.710;5.366;2022-08-19T02:38:28;5.95;;;3.42;;
69485;SDS011;56677;51.710;5.366;2022-08-19T02:40:54;6.18;;;3.63;;
69485;SDS011;56677;51.710;5.366;2022-08-19T02:43:20;6.13;;;3.43;;
69485;SDS011;56677;51.710;5.366;2022-08-19T02:45:45;5.00;;;3.13;;
69485;SDS011;56677;51.710;5.366;2022-08-19T02:48:11;5.20;;;3.03;;
69485;SDS011;56677;51.710;5.366;2022-08-19T02:50:39;5.90;;;3.22;;
69485;SDS011;56677;51.710;5.366;2022-08-19T02:53:05;6.10;;;3.60;;
69485;SDS011;56677;51.710;5.366;2022-08-19T02:55:30;5.10;;;3.30;;
69485;SDS011;56677;51.710;5.366;2022-08-19T02:57:55;4.82;;;2.95;;
69485;SDS011;56677;51.710;5.366;2022-08-19T03:00:20;5.15;;;3.45;;
69485;SDS011;56677;51.710;5.366;2022-08-19T03:02:45;5.80;;;3.20;;
69485;SDS011;56677;51.710;5.366;2022-08-19T03:05:10;5.40;;;3.50;;
69485;SDS011;56677;51.710;5.366;2022-08-19T03:07:36;5.93;;;3.30;;
69485;SDS011;56677;51.710;5.366;2022-08-19T03:10:01;5.47;;;3.20;;
69485;SDS011;56677;51.710;5.366;2022-08-19T03:12:26;6.00;;;3.27;;
69485;SDS011;56677;51.710;5.366;2022-08-19T03:14:51;5.73;;;3.33;;
69485;SDS011;56677;51.710;5.366;2022-08-19T03:17:17;5.57;;;3.40;;
69485;SDS011;56677;51.710;5.366;2022-08-19T03:19:42;4.93;;;3.42;;
69485;SDS011;56677;51.710;5.366;2022-08-19T03:22:07;4.97;;;2.85;;
69485;SDS011;56677;51.710;5.366;2022-08-19T03:24:32;5.95;;;3.47;;
69485;SDS011;56677;51.710;5.366;2022-08-19T03:26:57;5.37;;;2.90;;
69485;SDS011;56677;51.710;5.366;2022-08-19T03:29:23;5.55;;;3.10;;
69485;SDS011;56677;51.710;5.366;2022-08-19T03:31:49;5.53;;;3.15;;
69485;SDS011;56677;51.710;5.366;2022-08-19T03:34:16;5.85;;;3.10;;
69485;SDS011;56677;51.710;5.366;2022-08-19T03:36:42;5.27;;;3.33;;
69485;SDS011;56677;51.710;5.366;2022-08-19T03:39:07;5.68;;;3.42;;
69485;SDS011;56677;51.710;5.366;2022-08-19T03:41:35;6.38;;;3.60;;
69485;SDS011;56677;51.710;5.366;2022-08-19T03:44:01;5.30;;;3.03;;
69485;SDS011;56677;51.710;5.366;2022-08-19T03:46:27;5.13;;;3.10;;
69485;SDS011;56677;51.710;5.366;2022-08-19T03:48:55;6.25;;;3.28;;
69485;SDS011;56677;51.710;5.366;2022-08-19T03:51:21;5.23;;;3.17;;
69485;SDS011;56677;51.710;5.366;2022-08-19T03:53:47;5.55;;;3.10;;
69485;SDS011;56677;51.710;5.366;2022-08-19T03:56:12;4.93;;;3.07;;
69485;SDS011;56677;51.710;5.366;2022-08-19T03:58:37;6.28;;;3.72;;
69485;SDS011;56677;51.710;5.366;2022-08-19T04:01:06;4.45;;;3.08;;
69485;SDS011;56677;51.710;5.366;2022-08-19T04:03:31;5.07;;;3.20;;
69485;SDS011;56677;51.710;5.366;2022-08-19T04:05:56;5.00;;;3.40;;
69485;SDS011;56677;51.710;5.366;2022-08-19T04:08:21;6.13;;;3.50;;
69485;SDS011;56677;51.710;5.366;2022-08-19T04:10:47;5.43;;;3.22;;
69485;SDS011;56677;51.710;5.366;2022-08-19T04:13:13;4.68;;;3.30;;
69485;SDS011;56677;51.710;5.366;2022-08-19T04:15:39;6.13;;;3.50;;
69485;SDS011;56677;51.710;5.366;2022-08-19T04:18:04;5.80;;;3.38;;
69485;SDS011;56677;51.710;5.366;2022-08-19T04:20:29;5.33;;;2.90;;
69485;SDS011;56677;51.710;5.366;2022-08-19T04:22:56;6.35;;;3.17;;
69485;SDS011;56677;51.710;5.366;2022-08-19T04:25:21;4.90;;;3.10;;
69485;SDS011;56677;51.710;5.366;2022-08-19T04:27:46;5.75;;;3.15;;
69485;SDS011;56677;51.710;5.366;2022-08-19T04:30:12;6.00;;;3.37;;
69485;SDS011;56677;51.710;5.366;2022-08-19T04:32:37;5.55;;;3.28;;
69485;SDS011;56677;51.710;5.366;2022-08-19T04:35:02;5.88;;;3.30;;
69485;SDS011;56677;51.710;5.366;2022-08-19T04:37:27;5.83;;;3.20;;
69485;SDS011;56677;51.710;5.366;2022-08-19T04:39:52;4.87;;;3.40;;
69485;SDS011;56677;51.710;5.366;2022-08-19T04:42:18;5.40;;;3.00;;
69485;SDS011;56677;51.710;5.366;2022-08-19T04:44:43;4.72;;;3.00;;
69485;SDS011;56677;51.710;5.366;2022-08-19T04:47:08;6.07;;;3.30;;
69485;SDS011;56677;51.710;5.366;2022-08-19T04:49:33;5.20;;;3.10;;
69485;SDS011;56677;51.710;5.366;2022-08-19T04:51:58;5.38;;;3.22;;
69485;SDS011;56677;51.710;5.366;2022-08-19T04:54:23;5.35;;;3.28;;
69485;SDS011;56677;51.710;5.366;2022-08-19T04:56:49;5.83;;;3.23;;
69485;SDS011;56677;51.710;5.366;2022-08-19T04:59:14;4.83;;;3.00;;
69485;SDS011;56677;51.710;5.366;2022-08-19T05:01:39;6.22;;;3.55;;
69485;SDS011;56677;51.710;5.366;2022-08-19T05:04:05;5.68;;;3.40;;
69485;SDS011;56677;51.710;5.366;2022-08-19T05:06:31;6.70;;;3.80;;
69485;SDS011;56677;51.710;5.366;2022-08-19T05:08:56;6.17;;;3.67;;
69485;SDS011;56677;51.710;5.366;2022-08-19T05:11:24;6.28;;;3.50;;
69485;SDS011;56677;51.710;5.366;2022-08-19T05:13:50;6.53;;;3.80;;
69485;SDS011;56677;51.710;5.366;2022-08-19T05:16:16;7.18;;;4.00;;
69485;SDS011;56677;51.710;5.366;2022-08-19T05:18:41;6.70;;;3.75;;
69485;SDS011;56677;51.710;5.366;2022-08-19T05:21:07;6.93;;;3.73;;
69485;SDS011;56677;51.710;5.366;2022-08-19T05:23:33;6.50;;;3.25;;
69485;SDS011;56677;51.710;5.366;2022-08-19T05:25:58;7.55;;;4.50;;
69485;SDS011;56677;51.710;5.366;2022-08-19T05:28:23;7.78;;;4.28;;
69485;SDS011;56677;51.710;5.366;2022-08-19T05:30:48;6.63;;;3.67;;
69485;SDS011;56677;51.710;5.366;2022-08-19T05:33:13;7.10;;;4.60;;
69485;SDS011;56677;51.710;5.366;2022-08-19T05:35:39;9.03;;;4.90;;
69485;SDS011;56677;51.710;5.366;2022-08-19T05:38:04;9.10;;;4.93;;
69485;SDS011;56677;51.710;5.366;2022-08-19T05:40:29;8.70;;;4.60;;
69485;SDS011;56677;51.710;5.366;2022-08-19T05:42:54;9.52;;;4.60;;
69485;SDS011;56677;51.710;5.366;2022-08-19T05:45:19;7.65;;;4.80;;
69485;SDS011;56677;51.710;5.366;2022-08-19T05:47:45;9.87;;;4.87;;
69485;SDS011;56677;51.710;5.366;2022-08-19T05:50:10;8.40;;;4.38;;
69485;SDS011;56677;51.710;5.366;2022-08-19T05:52:36;7.17;;;4.00;;
69485;SDS011;56677;51.710;5.366;2022-08-19T05:55:01;6.22;;;3.35;;
69485;SDS011;56677;51.710;5.366;2022-08-19T05:57:26;9.38;;;3.72;;
69485;SDS011;56677;51.710;5.366;2022-08-19T05:59:52;6.87;;;3.90;;
69485;SDS011;56677;51.710;5.366;2022-08-19T06:02:17;5.90;;;3.30;;
69485;SDS011;56677;51.710;5.366;2022-08-19T06:04:42;6.80;;;3.78;;
69485;SDS011;56677;51.710;5.366;2022-08-19T06:07:07;6.47;;;3.70;;
69485;SDS011;56677;51.710;5.366;2022-08-19T06:09:32;9.65;;;5.82;;
69485;SDS011;56677;51.710;5.366;2022-08-19T06:11:57;19.85;;;10.40;;
69485;SDS011;56677;51.710;5.366;2022-08-19T06:14:24;24.52;;;12.63;;
69485;SDS011;56677;51.710;5.366;2022-08-19T06:16:50;23.20;;;12.50;;
69485;SDS011;56677;51.710;5.366;2022-08-19T06:19:16;27.30;;;13.53;;
69485;SDS011;56677;51.710;5.366;2022-08-19T06:21:43;25.63;;;14.43;;
69485;SDS011;56677;51.710;5.366;2022-08-19T06:24:10;28.77;;;14.90;;
69485;SDS011;56677;51.710;5.366;2022-08-19T06:26:37;26.67;;;13.45;;
69485;SDS011;56677;51.710;5.366;2022-08-19T06:29:05;27.23;;;13.57;;
69485;SDS011;56677;51.710;5.366;2022-08-19T06:31:30;27.35;;;13.82;;
69485;SDS011;56677;51.710;5.366;2022-08-19T06:33:55;24.50;;;12.75;;
69485;SDS011;56677;51.710;5.366;2022-08-19T06:36:25;29.60;;;14.27;;
69485;SDS011;56677;51.710;5.366;2022-08-19T06:38:50;30.57;;;13.83;;
69485;SDS011;56677;51.710;5.366;2022-08-19T06:41:15;27.90;;;13.43;;
69485;SDS011;56677;51.710;5.366;2022-08-19T06:43:41;29.48;;;13.20;;
69485;SDS011;56677;51.710;5.366;2022-08-19T06:46:09;27.73;;;13.73;;
69485;SDS011;56677;51.710;5.366;2022-08-19T06:48:34;25.80;;;12.60;;
69485;SDS011;56677;51.710;5.366;2022-08-19T06:50:59;28.83;;;13.25;;
69485;SDS011;56677;51.710;5.366;2022-08-19T06:53:24;26.95;;;13.25;;
69485;SDS011;56677;51.710;5.366;2022-08-19T06:55:49;28.10;;;12.65;;
69485;SDS011;56677;51.710;5.366;2022-08-19T06:58:14;28.93;;;13.40;;
69485;SDS011;56677;51.710;5.366;2022-08-19T07:00:39;27.10;;;12.15;;
69485;SDS011;56677;51.710;5.366;2022-08-19T07:03:05;26.20;;;12.48;;
69485;SDS011;56677;51.710;5.366;2022-08-19T07:05:30;25.92;;;12.75;;
69485;SDS011;56677;51.710;5.366;2022-08-19T07:07:55;24.10;;;12.00;;
69485;SDS011;56677;51.710;5.366;2022-08-19T07:10:20;24.50;;;11.52;;
69485;SDS011;56677;51.710;5.366;2022-08-19T07:12:45;20.75;;;9.75;;
69485;SDS011;56677;51.710;5.366;2022-08-19T07:15:10;20.58;;;9.05;;
69485;SDS011;56677;51.710;5.366;2022-08-19T07:17:36;16.73;;;8.30;;
69485;SDS011;56677;51.710;5.366;2022-08-19T07:20:01;18.20;;;8.18;;
69485;SDS011;56677;51.710;5.366;2022-08-19T07:22:26;17.07;;;8.37;;
69485;SDS011;56677;51.710;5.366;2022-08-19T07:24:51;15.27;;;7.47;;
69485;SDS011;56677;51.710;5.366;2022-08-19T07:27:17;15.57;;;7.60;;
69485;SDS011;56677;51.710;5.366;2022-08-19T07:29:42;12.53;;;6.90;;
69485;SDS011;56677;51.710;5.366;2022-08-19T07:32:07;13.32;;;7.20;;
69485;SDS011;56677;51.710;5.366;2022-08-19T07:34:33;14.32;;;6.72;;
69485;SDS011;56677;51.710;5.366;2022-08-19T07:36:59;15.63;;;7.03;;
69485;SDS011;56677;51.710;5.366;2022-08-19T07:39:25;14.23;;;6.95;;
69485;SDS011;56677;51.710;5.366;2022-08-19T07:41:51;12.48;;;6.65;;
69485;SDS011;56677;51.710;5.366;2022-08-19T07:44:17;11.43;;;6.30;;
69485;SDS011;56677;51.710;5.366;2022-08-19T07:46:44;11.02;;;5.82;;
69485;SDS011;56677;51.710;5.366;2022-08-19T07:49:09;12.20;;;6.60;;
69485;SDS011;56677;51.710;5.366;2022-08-19T07:51:35;12.60;;;6.03;;
69485;SDS011;56677;51.710;5.366;2022-08-19T07:54:00;11.43;;;5.63;;
69485;SDS011;56677;51.710;5.366;2022-08-19T07:56:25;11.83;;;5.80;;
69485;SDS011;56677;51.710;5.366;2022-08-19T07:58:51;12.47;;;6.47;;
69485;SDS011;56677;51.710;5.366;2022-08-19T08:01:19;12.32;;;6.43;;
69485;SDS011;56677;51.710;5.366;2022-08-19T08:03:45;12.13;;;6.40;;
69485;SDS011;56677;51.710;5.366;2022-08-19T08:06:10;11.32;;;5.90;;
69485;SDS011;56677;51.710;5.366;2022-08-19T08:08:36;13.88;;;6.28;;
69485;SDS011;56677;51.710;5.366;2022-08-19T08:11:01;11.43;;;6.38;;
69485;SDS011;56677;51.710;5.366;2022-08-19T08:13:26;12.38;;;6.30;;
69485;SDS011;56677;51.710;5.366;2022-08-19T08:15:52;12.00;;;6.30;;
69485;SDS011;56677;51.710;5.366;2022-08-19T08:18:17;10.30;;;5.47;;
69485;SDS011;56677;51.710;5.366;2022-08-19T08:20:42;12.70;;;6.30;;
69485;SDS011;56677;51.710;5.366;2022-08-19T08:23:07;11.63;;;5.72;;
69485;SDS011;56677;51.710;5.366;2022-08-19T08:25:33;11.45;;;5.75;;
69485;SDS011;56677;51.710;5.366;2022-08-19T08:27:58;11.13;;;5.83;;
69485;SDS011;56677;51.710;5.366;2022-08-19T08:30:24;13.05;;;6.03;;
69485;SDS011;56677;51.710;5.366;2022-08-19T08:32:49;12.65;;;6.18;;
69485;SDS011;56677;51.710;5.366;2022-08-19T08:35:16;10.37;;;5.73;;
69485;SDS011;56677;51.710;5.366;2022-08-19T08:37:42;13.05;;;5.95;;
69485;SDS011;56677;51.710;5.366;2022-08-19T08:40:10;12.00;;;6.13;;
69485;SDS011;56677;51.710;5.366;2022-08-19T08:42:39;10.38;;;5.78;;
69485;SDS011;56677;51.710;5.366;2022-08-19T08:45:11;10.98;;;5.75;;
69485;SDS011;56677;51.710;5.366;2022-08-19T08:47:37;10.10;;;5.63;;
69485;SDS011;56677;51.710;5.366;2022-08-19T08:50:18;11.57;;;6.45;;
69485;SDS011;56677;51.710;5.366;2022-08-19T08:52:45;10.53;;;5.73;;
69485;SDS011;56677;51.710;5.366;2022-08-19T08:55:18;12.13;;;6.10;;
69485;SDS011;56677;51.710;5.366;2022-08-19T09:00:20;13.00;;;6.15;;
69485;SDS011;56677;51.710;5.366;2022-08-19T09:02:46;11.65;;;5.70;;
69485;SDS011;56677;51.710;5.366;2022-08-19T09:05:11;12.03;;;6.37;;
69485;SDS011;56677;51.710;5.366;2022-08-19T09:10:10;10.95;;;5.85;;
69485;SDS011;56677;51.710;5.366;2022-08-19T09:15:14;9.03;;;5.10;;
69485;SDS011;56677;51.710;5.366;2022-08-19T09:17:39;11.15;;;5.38;;
69485;SDS011;56677;51.710;5.366;2022-08-19T09:22:40;9.60;;;5.80;;
69485;SDS011;56677;51.710;5.366;2022-08-19T09:25:06;14.00;;;5.43;;
69485;SDS011;56677;51.710;5.366;2022-08-19T09:27:32;13.48;;;5.80;;
69485;SDS011;56677;51.710;5.366;2022-08-19T09:29:57;12.47;;;5.57;;
69485;SDS011;56677;51.710;5.366;2022-08-19T09:32:23;12.75;;;5.28;;
69485;SDS011;56677;51.710;5.366;2022-08-19T09:34:48;10.65;;;5.32;;
69485;SDS011;56677;51.710;5.366;2022-08-19T09:37:13;10.23;;;6.03;;
69485;SDS011;56677;51.710;5.366;2022-08-19T09:39:39;11.37;;;5.90;;
69485;SDS011;56677;51.710;5.366;2022-08-19T09:42:04;11.35;;;5.70;;
69485;SDS011;56677;51.710;5.366;2022-08-19T09:44:30;10.77;;;5.87;;
69485;SDS011;56677;51.710;5.366;2022-08-19T09:46:55;10.25;;;6.18;;
69485;SDS011;56677;51.710;5.366;2022-08-19T09:49:20;12.65;;;6.05;;
69485;SDS011;56677;51.710;5.366;2022-08-19T09:51:45;8.83;;;5.00;;
69485;SDS011;56677;51.710;5.366;2022-08-19T09:54:14;9.82;;;5.60;;
69485;SDS011;56677;51.710;5.366;2022-08-19T09:56:39;10.23;;;6.33;;
69485;SDS011;56677;51.710;5.366;2022-08-19T09:59:04;11.38;;;6.00;;
69485;SDS011;56677;51.710;5.366;2022-08-19T10:01:30;12.13;;;5.43;;
69485;SDS011;56677;51.710;5.366;2022-08-19T10:03:56;11.40;;;5.72;;
69485;SDS011;56677;51.710;5.366;2022-08-19T10:06:22;10.30;;;6.17;;
69485;SDS011;56677;51.710;5.366;2022-08-19T10:08:48;11.50;;;5.93;;
69485;SDS011;56677;51.710;5.366;2022-08-19T10:11:13;9.33;;;5.43;;
69485;SDS011;56677;51.710;5.366;2022-08-19T10:13:38;10.68;;;5.60;;
69485;SDS011;56677;51.710;5.366;2022-08-19T10:16:08;9.77;;;5.75;;
69485;SDS011;56677;51.710;5.366;2022-08-19T10:18:33;9.57;;;5.80;;
69485;SDS011;56677;51.710;5.366;2022-08-19T10:21:04;10.77;;;5.60;;
69485;SDS011;56677;51.710;5.366;2022-08-19T10:23:29;9.40;;;5.43;;
69485;SDS011;56677;51.710;5.366;2022-08-19T10:25:54;11.40;;;5.60;;
69485;SDS011;56677;51.710;5.366;2022-08-19T10:28:19;11.07;;;6.03;;
69485;SDS011;56677;51.710;5.366;2022-08-19T10:30:45;10.93;;;5.45;;
69485;SDS011;56677;51.710;5.366;2022-08-19T10:33:10;11.10;;;5.90;;
69485;SDS011;56677;51.710;5.366;2022-08-19T10:35:35;11.02;;;5.70;;
69485;SDS011;56677;51.710;5.366;2022-08-19T10:38:00;9.23;;;5.45;;
69485;SDS011;56677;51.710;5.366;2022-08-19T10:40:26;11.90;;;6.13;;
69485;SDS011;56677;51.710;5.366;2022-08-19T10:42:51;10.70;;;6.22;;
69485;SDS011;56677;51.710;5.366;2022-08-19T10:45:16;11.05;;;5.55;;
69485;SDS011;56677;51.710;5.366;2022-08-19T10:47:41;8.60;;;5.60;;
69485;SDS011;56677;51.710;5.366;2022-08-19T10:50:06;10.20;;;6.10;;
69485;SDS011;56677;51.710;5.366;2022-08-19T10:52:31;9.47;;;5.23;;
69485;SDS011;56677;51.710;5.366;2022-08-19T10:54:57;10.07;;;5.80;;
69485;SDS011;56677;51.710;5.366;2022-08-19T10:57:22;9.88;;;5.72;;
69485;SDS011;56677;51.710;5.366;2022-08-19T10:59:47;9.52;;;6.18;;
69485;SDS011;56677;51.710;5.366;2022-08-19T11:02:12;8.63;;;5.20;;
69485;SDS011;56677;51.710;5.366;2022-08-19T11:04:37;10.15;;;6.40;;
69485;SDS011;56677;51.710;5.366;2022-08-19T11:07:04;9.45;;;5.95;;
69485;SDS011;56677;51.710;5.366;2022-08-19T11:09:29;9.85;;;5.85;;
69485;SDS011;56677;51.710;5.366;2022-08-19T11:11:54;9.73;;;5.57;;
69485;SDS011;56677;51.710;5.366;2022-08-19T11:14:20;10.30;;;5.90;;
69485;SDS011;56677;51.710;5.366;2022-08-19T11:16:46;9.70;;;5.87;;
69485;SDS011;56677;51.710;5.366;2022-08-19T11:19:11;9.90;;;5.53;;
69485;SDS011;56677;51.710;5.366;2022-08-19T11:21:38;9.23;;;5.57;;
69485;SDS011;56677;51.710;5.366;2022-08-19T11:24:05;8.77;;;5.43;;
69485;SDS011;56677;51.710;5.366;2022-08-19T11:26:31;10.43;;;5.63;;
69485;SDS011;56677;51.710;5.366;2022-08-19T11:28:57;10.38;;;5.75;;
69485;SDS011;56677;51.710;5.366;2022-08-19T11:31:23;10.33;;;5.87;;
69485;SDS011;56677;51.710;5.366;2022-08-19T11:33:49;11.95;;;5.85;;
69485;SDS011;56677;51.710;5.366;2022-08-19T11:36:14;9.43;;;5.88;;
69485;SDS011;56677;51.710;5.366;2022-08-19T11:38:39;9.07;;;6.05;;
69485;SDS011;56677;51.710;5.366;2022-08-19T11:41:05;10.98;;;6.30;;
69485;SDS011;56677;51.710;5.366;2022-08-19T11:43:30;10.35;;;6.00;;
69485;SDS011;56677;51.710;5.366;2022-08-19T11:45:56;11.60;;;6.47;;
69485;SDS011;56677;51.710;5.366;2022-08-19T11:48:21;13.23;;;6.10;;
69485;SDS011;56677;51.710;5.366;2022-08-19T11:50:47;9.93;;;6.10;;
69485;SDS011;56677;51.710;5.366;2022-08-19T11:53:13;11.50;;;6.18;;
69485;SDS011;56677;51.710;5.366;2022-08-19T11:55:38;10.33;;;6.60;;
69485;SDS011;56677;51.710;5.366;2022-08-19T11:58:03;9.02;;;6.00;;
69485;SDS011;56677;51.710;5.366;2022-08-19T12:00:28;10.77;;;6.77;;
69485;SDS011;56677;51.710;5.366;2022-08-19T12:02:53;11.60;;;6.88;;
69485;SDS011;56677;51.710;5.366;2022-08-19T12:05:19;12.25;;;7.63;;
69485;SDS011;56677;51.710;5.366;2022-08-19T12:07:44;12.35;;;7.10;;
69485;SDS011;56677;51.710;5.366;2022-08-19T12:10:09;10.40;;;6.18;;
69485;SDS011;56677;51.710;5.366;2022-08-19T12:12:34;9.53;;;6.43;;
69485;SDS011;56677;51.710;5.366;2022-08-19T12:14:59;10.33;;;6.33;;
69485;SDS011;56677;51.710;5.366;2022-08-19T12:17:25;10.93;;;6.25;;
69485;SDS011;56677;51.710;5.366;2022-08-19T12:19:51;9.65;;;6.18;;
69485;SDS011;56677;51.710;5.366;2022-08-19T12:22:16;10.27;;;5.97;;
69485;SDS011;56677;51.710;5.366;2022-08-19T12:24:41;10.07;;;5.80;;
69485;SDS011;56677;51.710;5.366;2022-08-19T12:27:06;9.83;;;6.67;;
69485;SDS011;56677;51.710;5.366;2022-08-19T12:29:31;10.32;;;6.57;;
69485;SDS011;56677;51.710;5.366;2022-08-19T12:31:57;11.88;;;6.93;;
69485;SDS011;56677;51.710;5.366;2022-08-19T12:34:23;10.75;;;6.40;;
69485;SDS011;56677;51.710;5.366;2022-08-19T12:36:48;10.10;;;6.47;;
69485;SDS011;56677;51.710;5.366;2022-08-19T12:39:13;10.17;;;6.13;;
69485;SDS011;56677;51.710;5.366;2022-08-19T12:41:38;10.82;;;6.65;;
69485;SDS011;56677;51.710;5.366;2022-08-19T12:44:03;10.25;;;7.07;;
69485;SDS011;56677;51.710;5.366;2022-08-19T12:46:28;11.82;;;6.65;;
69485;SDS011;56677;51.710;5.366;2022-08-19T12:48:53;11.32;;;6.18;;
69485;SDS011;56677;51.710;5.366;2022-08-19T12:51:18;9.07;;;6.13;;
69485;SDS011;56677;51.710;5.366;2022-08-19T12:53:43;9.77;;;6.40;;
69485;SDS011;56677;51.710;5.366;2022-08-19T12:56:10;10.32;;;6.30;;
69485;SDS011;56677;51.710;5.366;2022-08-19T12:58:35;11.88;;;6.80;;
69485;SDS011;56677;51.710;5.366;2022-08-19T13:01:07;20.48;;;8.45;;
69485;SDS011;56677;51.710;5.366;2022-08-19T13:03:33;20.73;;;9.00;;
69485;SDS011;56677;51.710;5.366;2022-08-19T13:05:58;21.07;;;9.37;;
69485;SDS011;56677;51.710;5.366;2022-08-19T13:08:23;23.08;;;9.48;;
69485;SDS011;56677;51.710;5.366;2022-08-19T13:10:48;36.88;;;12.00;;
69485;SDS011;56677;51.710;5.366;2022-08-19T13:13:13;37.10;;;13.52;;
69485;SDS011;56677;51.710;5.366;2022-08-19T13:15:39;35.05;;;12.02;;
69485;SDS011;56677;51.710;5.366;2022-08-19T13:18:04;30.80;;;10.80;;
69485;SDS011;56677;51.710;5.366;2022-08-19T13:20:30;23.67;;;10.35;;
69485;SDS011;56677;51.710;5.366;2022-08-19T13:22:55;28.27;;;10.30;;
69485;SDS011;56677;51.710;5.366;2022-08-19T13:25:20;28.90;;;10.15;;
69485;SDS011;56677;51.710;5.366;2022-08-19T13:27:46;30.03;;;10.73;;
69485;SDS011;56677;51.710;5.366;2022-08-19T13:30:12;30.45;;;11.00;;
69485;SDS011;56677;51.710;5.366;2022-08-19T13:32:38;24.25;;;10.48;;
69485;SDS011;56677;51.710;5.366;2022-08-19T13:35:03;25.55;;;10.00;;
69485;SDS011;56677;51.710;5.366;2022-08-19T13:37:28;29.43;;;11.03;;
69485;SDS011;56677;51.710;5.366;2022-08-19T13:39:53;29.65;;;11.65;;
69485;SDS011;56677;51.710;5.366;2022-08-19T13:42:18;31.02;;;11.25;;
69485;SDS011;56677;51.710;5.366;2022-08-19T13:44:43;24.83;;;11.30;;
69485;SDS011;56677;51.710;5.366;2022-08-19T13:47:08;27.13;;;10.30;;
69485;SDS011;56677;51.710;5.366;2022-08-19T13:49:34;23.57;;;10.87;;
69485;SDS011;56677;51.710;5.366;2022-08-19T13:52:00;28.13;;;11.40;;
69485;SDS011;56677;51.710;5.366;2022-08-19T13:54:25;23.90;;;10.37;;
69485;SDS011;56677;51.710;5.366;2022-08-19T13:56:50;26.15;;;11.13;;
69485;SDS011;56677;51.710;5.366;2022-08-19T13:59:15;24.70;;;10.60;;
69485;SDS011;56677;51.710;5.366;2022-08-19T14:01:40;25.67;;;10.10;;
69485;SDS011;56677;51.710;5.366;2022-08-19T14:04:06;25.63;;;11.00;;
69485;SDS011;56677;51.710;5.366;2022-08-19T14:06:32;24.45;;;10.48;;
69485;SDS011;56677;51.710;5.366;2022-08-19T14:08:57;21.77;;;10.27;;
69485;SDS011;56677;51.710;5.366;2022-08-19T14:11:22;25.48;;;10.60;;
69485;SDS011;56677;51.710;5.366;2022-08-19T14:13:47;21.45;;;10.23;;
69485;SDS011;56677;51.710;5.366;2022-08-19T14:16:12;23.88;;;9.75;;
69485;SDS011;56677;51.710;5.366;2022-08-19T14:18:38;25.47;;;11.10;;
69485;SDS011;56677;51.710;5.366;2022-08-19T14:21:03;23.87;;;10.40;;
69485;SDS011;56677;51.710;5.366;2022-08-19T14:23:28;23.93;;;10.07;;
69485;SDS011;56677;51.710;5.366;2022-08-19T14:26:02;24.00;;;10.30;;
69485;SDS011;56677;51.710;5.366;2022-08-19T14:28:27;23.55;;;9.65;;
69485;SDS011;56677;51.710;5.366;2022-08-19T14:30:52;21.20;;;9.98;;
69485;SDS011;56677;51.710;5.366;2022-08-19T14:33:17;26.05;;;10.60;;
69485;SDS011;56677;51.710;5.366;2022-08-19T14:35:42;23.55;;;10.43;;
69485;SDS011;56677;51.710;5.366;2022-08-19T14:38:14;25.85;;;9.73;;